Terminal Aerodrome Forecast
Issued by NWS Pittsburgh, PA

Current Version | Previous Version | Text Only | Print | Product List | Glossary Off
Versions: 1 2 3 4 5 6 7 8 9 10 11 12 13 14 15 16 17 18 19 20 21 22 23 24 25 26 27 28

000
FTUS41 KPBZ 081700
TAFPIT
TAF
KPIT 081720Z 0818/0924 22012G22KT P6SM BKN035
      TEMPO 0818/0820 2SM TSRA OVC020CB
     FM082000 25012G22KT P6SM BKN035
     FM090000 26008KT P6SM BKN050
     FM090900 24008KT P6SM SCT010 BKN020
     FM091500 26010KT P6SM BKN035=

USA.gov is the U.S. government's official web portal to all federal, state and local government web resources and services.